Time;durP1;ratioP1;P1;durP2;ratioP2;P2;SDS_P1;SDS_P2;PMS_P1;PMS_P2;Temp;Humidity;BMP_temperature;BMP_pressure;BME280_temperature;BME280_humidity;BME280_pressure;Samples;Min_cycle;Max_cycle;Signal;HPM_P1;HPM_P2
2022/05/29 00:02:17;;;;;;;1.65;1.55;;;13.80;99.90;;;;;;4937662;29;20261;-84
2022/05/29 00:04:46;;;;;;;1.95;1.40;;;13.80;99.90;;;;;;4938018;29;20264;-85
2022/05/29 00:07:17;;;;;;;1.80;1.70;;;13.80;99.90;;;;;;4938001;29;20210;-85
2022/05/29 00:09:48;;;;;;;5.97;1.63;;;13.80;99.90;;;;;;4938067;29;20232;-84
2022/05/29 00:12:18;;;;;;;5.30;1.58;;;13.70;99.90;;;;;;4937515;29;20274;-84
2022/05/29 00:14:49;;;;;;;1.88;1.50;;;13.60;99.90;;;;;;4937477;29;20310;-85
2022/05/29 00:17:18;;;;;;;1.83;1.73;;;13.60;99.90;;;;;;4937782;29;20313;-84
2022/05/29 00:19:47;;;;;;;2.03;1.80;;;13.50;99.90;;;;;;4937356;29;20209;-85
2022/05/29 00:22:18;;;;;;;2.15;1.83;;;13.50;99.90;;;;;;4937166;29;20202;-85
2022/05/29 00:24:47;;;;;;;1.88;1.65;;;13.40;99.90;;;;;;4937778;29;20281;-85
2022/05/29 00:27:17;;;;;;;3.42;1.90;;;13.40;99.90;;;;;;4937504;29;20297;-85
2022/05/29 00:29:46;;;;;;;2.40;2.20;;;13.30;99.90;;;;;;4937539;29;20240;-84
2022/05/29 00:32:16;;;;;;;4.13;1.90;;;13.30;99.90;;;;;;4937312;29;20213;-85
2022/05/29 00:34:44;;;;;;;1.95;1.80;;;13.30;99.90;;;;;;4937581;29;20317;-84
2022/05/29 00:37:13;;;;;;;1.70;1.60;;;13.30;99.90;;;;;;4937380;29;20253;-84
2022/05/29 00:39:41;;;;;;;1.95;1.85;;;13.20;99.90;;;;;;4937112;29;20213;-84
2022/05/29 00:42:13;;;;;;;3.65;2.30;;;13.20;99.90;;;;;;4937145;29;20210;-85
2022/05/29 00:44:42;;;;;;;2.72;1.95;;;13.20;99.90;;;;;;4936978;29;20257;-84
2022/05/29 00:47:18;;;;;;;2.15;1.95;;;13.10;99.90;;;;;;4937250;29;20232;-85
2022/05/29 00:49:48;;;;;;;1.98;1.77;;;13.10;99.90;;;;;;4937274;29;20227;-84
2022/05/29 00:52:19;;;;;;;1.70;1.60;;;13.10;99.90;;;;;;4936695;29;20210;-84
2022/05/29 00:54:53;;;;;;;2.83;2.03;;;13.00;99.90;;;;;;4936977;29;20308;-84
2022/05/29 00:57:26;;;;;;;2.28;2.13;;;13.00;99.90;;;;;;4936909;29;20280;-85
2022/05/29 00:59:55;;;;;;;2.00;1.90;;;13.00;99.90;;;;;;4937037;29;20237;-84
2022/05/29 01:02:26;;;;;;;2.05;1.58;;;13.00;99.90;;;;;;4936914;29;20297;-84
2022/05/29 01:04:54;;;;;;;2.38;2.17;;;12.90;99.90;;;;;;4936723;29;20268;-84
2022/05/29 01:07:24;;;;;;;2.33;2.00;;;12.90;99.90;;;;;;4936766;29;20224;-84
2022/05/29 01:09:54;;;;;;;1.40;1.30;;;12.80;99.90;;;;;;4936794;29;20297;-84
2022/05/29 01:12:35;;;;;;;4.43;1.90;;;12.80;99.90;;;;;;4936894;29;20241;-84
2022/05/29 01:15:11;;;;;;;1.95;1.40;;;12.80;99.90;;;;;;4936529;29;20324;-84
2022/05/29 01:17:45;;;;;;;1.45;1.40;;;12.80;99.90;;;;;;4936481;29;20232;-84
2022/05/29 01:20:25;;;;;;;5.82;1.65;;;12.80;99.90;;;;;;4936048;29;20217;-84
2022/05/29 01:23:24;;;;;;;1.55;1.45;;;12.80;99.90;;;;;;4936256;29;20213;-84
2022/05/29 01:26:14;;;;;;;5.28;1.60;;;12.70;99.90;;;;;;4936679;29;20218;-84
2022/05/29 01:28:52;;;;;;;1.48;1.38;;;12.70;99.90;;;;;;4936651;29;20309;-84
2022/05/29 01:31:35;;;;;;;1.70;1.48;;;12.70;99.90;;;;;;4936479;29;20205;-84
2022/05/29 01:34:15;;;;;;;1.40;1.20;;;12.60;99.90;;;;;;4936226;29;20240;-84
2022/05/29 01:36:50;;;;;;;2.63;1.40;;;12.60;99.90;;;;;;4936638;29;20284;-84
2022/05/29 01:39:24;;;;;;;1.42;1.23;;;12.50;99.90;;;;;;4936364;29;20307;-84
2022/05/29 01:41:57;;;;;;;1.40;1.30;;;12.40;99.90;;;;;;4936110;29;20232;-84
2022/05/29 01:44:34;;;;;;;1.50;1.40;;;12.40;99.90;;;;;;4936015;29;20253;-84
2022/05/29 01:47:08;;;;;;;2.72;1.65;;;12.30;99.90;;;;;;4936258;29;20216;-84
2022/05/29 01:49:41;;;;;;;1.58;1.48;;;12.30;99.90;;;;;;4936575;29;20256;-84
2022/05/29 01:52:15;;;;;;;2.17;1.38;;;12.30;99.90;;;;;;4936089;29;20221;-84
2022/05/29 01:54:48;;;;;;;1.70;1.60;;;12.30;99.90;;;;;;4936414;29;20324;-84
2022/05/29 01:57:20;;;;;;;1.00;1.00;;;12.40;99.90;;;;;;4936278;29;20210;-84
2022/05/29 01:59:55;;;;;;;2.70;1.35;;;12.30;99.90;;;;;;4935847;29;20222;-85
2022/05/29 02:02:27;;;;;;;1.48;1.38;;;12.30;99.90;;;;;;4935900;29;20212;-84
2022/05/29 02:05:00;;;;;;;1.77;1.35;;;12.30;99.90;;;;;;4936210;29;20229;-84
2022/05/29 02:07:50;;;;;;;1.58;1.40;;;12.30;99.90;;;;;;4936093;29;20213;-84
2022/05/29 02:10:28;;;;;;;1.73;1.30;;;12.20;99.90;;;;;;4936063;29;20284;-84
2022/05/29 02:13:04;;;;;;;1.42;1.33;;;12.20;99.90;;;;;;4935831;29;20300;-85
2022/05/29 02:15:42;;;;;;;1.42;1.38;;;12.20;99.90;;;;;;4935851;29;20205;-84
2022/05/29 02:18:19;;;;;;;2.42;2.20;;;12.10;99.90;;;;;;4935665;29;20253;-84
2022/05/29 02:20:51;;;;;;;1.25;1.17;;;12.10;99.90;;;;;;4935385;29;20304;-84
2022/05/29 02:23:27;;;;;;;1.90;1.40;;;12.00;99.90;;;;;;4935559;29;20371;-84
2022/05/29 02:25:57;;;;;;;1.20;1.20;;;11.90;99.90;;;;;;4935385;29;20223;-84
2022/05/29 02:28:30;;;;;;;1.00;1.00;;;11.90;99.90;;;;;;4936042;29;20281;-84
2022/05/29 02:31:13;;;;;;;3.00;1.25;;;11.90;99.90;;;;;;4935753;29;20301;-84
2022/05/29 02:33:48;;;;;;;2.15;1.45;;;11.80;99.90;;;;;;4935574;29;20316;-84
2022/05/29 02:36:24;;;;;;;1.48;1.38;;;11.70;99.90;;;;;;4935694;29;20209;-85
2022/05/29 02:39:07;;;;;;;3.30;2.22;;;11.70;99.90;;;;;;4935294;29;20226;-84
2022/05/29 02:41:49;;;;;;;2.92;1.75;;;11.60;99.90;;;;;;4935329;29;20276;-84
2022/05/29 02:44:29;;;;;;;1.70;1.38;;;11.60;99.90;;;;;;4935315;29;20313;-84
2022/05/29 02:47:05;;;;;;;1.98;1.60;;;11.50;99.90;;;;;;4935249;29;20214;-84
2022/05/29 02:49:39;;;;;;;1.27;1.15;;;11.40;99.90;;;;;;4935488;29;20237;-84
2022/05/29 02:52:12;;;;;;;3.53;2.45;;;11.30;99.90;;;;;;4935314;29;20211;-85
2022/05/29 02:54:40;;;;;;;1.63;1.52;;;11.30;99.90;;;;;;4935443;29;20249;-84
2022/05/29 02:57:10;;;;;;;2.88;1.65;;;11.20;99.90;;;;;;4935517;29;20230;-84
2022/05/29 02:59:42;;;;;;;1.20;1.20;;;11.20;99.90;;;;;;4935052;29;20254;-84
2022/05/29 03:02:16;;;;;;;1.50;1.40;;;11.20;99.90;;;;;;4935015;29;20257;-84
2022/05/29 03:04:55;;;;;;;2.28;1.50;;;11.20;99.90;;;;;;4935254;29;20249;-84
2022/05/29 03:07:35;;;;;;;1.70;1.60;;;11.20;99.90;;;;;;4935416;29;20293;-84
2022/05/29 03:10:13;;;;;;;1.25;1.10;;;11.20;99.90;;;;;;4935615;29;20297;-84
2022/05/29 03:12:51;;;;;;;1.23;1.13;;;11.20;99.90;;;;;;4935303;29;20209;-84
2022/05/29 03:15:25;;;;;;;5.07;2.08;;;11.10;99.90;;;;;;4935152;29;20249;-84
2022/05/29 03:18:08;;;;;;;1.10;1.10;;;11.10;99.90;;;;;;4935146;29;20297;-84
2022/05/29 03:20:44;;;;;;;1.58;1.48;;;11.10;99.90;;;;;;4934772;29;20297;-84
2022/05/29 03:23:25;;;;;;;4.93;1.77;;;11.10;99.90;;;;;;4935374;29;20301;-84
2022/05/29 03:25:57;;;;;;;1.08;1.08;;;11.10;99.90;;;;;;4935195;29;20301;-84
2022/05/29 03:28:31;;;;;;;1.67;1.50;;;11.20;99.90;;;;;;4935321;29;20245;-84
2022/05/29 03:31:03;;;;;;;2.65;1.70;;;11.20;99.90;;;;;;4938606;29;20273;-84
2022/05/29 03:33:32;;;;;;;2.28;1.30;;;11.20;99.90;;;;;;4938916;29;20313;-83
2022/05/29 03:36:08;;;;;;;3.47;1.30;;;11.30;99.90;;;;;;4938656;29;20293;-84
2022/05/29 03:38:36;;;;;;;2.90;1.45;;;11.30;99.90;;;;;;4938527;29;20224;-84
2022/05/29 03:41:11;;;;;;;16.92;1.67;;;11.30;99.90;;;;;;4938601;29;20214;-83
2022/05/29 03:43:42;;;;;;;2.28;1.25;;;11.40;99.90;;;;;;4938329;29;20233;-84
2022/05/29 03:46:16;;;;;;;1.27;1.17;;;11.30;99.90;;;;;;4938496;29;20223;-84
2022/05/29 03:48:46;;;;;;;1.98;1.38;;;11.40;99.90;;;;;;4938548;29;20244;-84
2022/05/29 03:51:14;;;;;;;2.30;1.48;;;11.40;99.90;;;;;;4938816;29;20245;-84
2022/05/29 03:53:43;;;;;;;1.38;1.27;;;11.50;99.90;;;;;;4938525;29;20233;-84
2022/05/29 03:56:11;;;;;;;1.52;1.42;;;11.50;99.90;;;;;;4938733;29;20210;-84
2022/05/29 03:58:40;;;;;;;1.73;1.60;;;11.60;99.90;;;;;;4938324;29;20293;-83
2022/05/29 04:01:08;;;;;;;1.30;1.20;;;11.60;99.90;;;;;;4937890;29;20244;-84
2022/05/29 04:03:37;;;;;;;7.00;1.52;;;11.70;99.90;;;;;;4938285;29;20229;-84
2022/05/29 04:06:07;;;;;;;1.45;1.35;;;11.70;99.90;;;;;;4937954;29;20244;-84
2022/05/29 04:14:07;;;;;;;1.40;1.30;;;11.90;99.90;;;;;;4937734;29;20257;-84
2022/05/29 04:16:36;;;;;;;1.33;1.23;;;12.10;99.90;;;;;;4938110;29;20210;-84
2022/05/29 04:19:04;;;;;;;1.90;1.75;;;12.10;99.90;;;;;;4937869;29;20216;-84
2022/05/29 04:21:34;;;;;;;1.55;1.45;;;12.30;99.90;;;;;;4937523;29;20273;-84
2022/05/29 04:24:02;;;;;;;1.67;1.30;;;12.30;99.90;;;;;;4937588;29;20309;-84
2022/05/29 04:26:32;;;;;;;1.75;1.65;;;12.40;99.90;;;;;;4937896;29;20222;-84
2022/05/29 04:29:01;;;;;;;1.90;1.45;;;12.50;99.90;;;;;;4938017;29;20217;-84
2022/05/29 04:31:29;;;;;;;2.20;2.00;;;12.50;99.90;;;;;;4937447;29;20301;-84
2022/05/29 04:33:57;;;;;;;1.65;1.30;;;12.50;99.90;;;;;;4937465;29;20237;-84
2022/05/29 04:36:25;;;;;;;2.80;1.83;;;12.50;99.90;;;;;;4937508;29;20210;-84
2022/05/29 04:38:57;;;;;;;1.45;1.35;;;12.60;99.90;;;;;;4937313;29;20236;-84
2022/05/29 04:41:26;;;;;;;1.50;1.40;;;12.60;99.90;;;;;;4936874;29;20332;-84
2022/05/29 04:43:54;;;;;;;1.58;1.48;;;12.70;99.90;;;;;;4937270;29;20246;-84
2022/05/29 04:46:22;;;;;;;1.25;1.15;;;12.70;99.90;;;;;;4937421;29;20301;-84
2022/05/29 04:48:51;;;;;;;1.40;1.30;;;12.80;99.90;;;;;;4937375;29;20281;-84
2022/05/29 04:51:19;;;;;;;2.00;1.45;;;12.80;99.90;;;;;;4937157;29;20319;-86
2022/05/29 04:53:47;;;;;;;1.60;1.50;;;12.90;99.90;;;;;;4937363;29;20288;-84
2022/05/29 04:56:17;;;;;;;1.48;1.38;;;13.00;99.90;;;;;;4936977;29;20308;-84
2022/05/29 04:58:45;;;;;;;1.75;1.65;;;13.10;99.90;;;;;;4937060;29;20298;-84
2022/05/29 05:01:14;;;;;;;1.67;1.50;;;13.10;99.90;;;;;;4936436;29;20293;-84
2022/05/29 05:03:42;;;;;;;1.95;1.70;;;13.10;99.90;;;;;;4937349;29;20236;-84
2022/05/29 05:06:11;;;;;;;1.25;1.23;;;13.20;99.90;;;;;;4937196;29;20210;-84
2022/05/29 05:08:39;;;;;;;0.90;0.90;;;13.20;99.90;;;;;;4937041;29;20214;-85
2022/05/29 05:11:08;;;;;;;2.08;1.67;;;13.30;99.90;;;;;;4936810;29;20293;-85
2022/05/29 05:13:37;;;;;;;1.63;1.17;;;13.30;99.90;;;;;;4936667;29;20256;-85
2022/05/29 05:16:07;;;;;;;1.85;1.42;;;13.40;99.90;;;;;;4937433;29;20222;-85
2022/05/29 05:18:35;;;;;;;1.25;1.25;;;13.50;99.90;;;;;;4937133;29;20210;-85
2022/05/29 05:21:06;;;;;;;2.45;1.50;;;13.50;99.90;;;;;;4936239;29;20249;-85
2022/05/29 05:23:35;;;;;;;12.27;1.50;;;13.50;99.90;;;;;;4936897;29;20226;-84
2022/05/29 05:26:09;;;;;;;1.33;1.20;;;13.50;99.90;;;;;;4936585;29;20214;-85
2022/05/29 05:28:40;;;;;;;1.30;1.20;;;13.50;99.90;;;;;;4936513;29;20276;-85
2022/05/29 05:31:09;;;;;;;2.10;1.27;;;13.60;99.90;;;;;;4936286;29;20213;-85
2022/05/29 05:33:37;;;;;;;2.83;1.73;;;13.70;99.90;;;;;;4936692;29;20262;-85
2022/05/29 05:36:06;;;;;;;1.45;1.35;;;13.70;99.90;;;;;;4936724;29;20214;-85
2022/05/29 05:38:34;;;;;;;2.00;1.63;;;13.80;99.90;;;;;;4936391;29;20273;-85
2022/05/29 05:41:03;;;;;;;2.15;1.50;;;13.70;99.90;;;;;;4936104;29;20225;-85
2022/05/29 05:43:31;;;;;;;1.70;1.58;;;13.80;99.90;;;;;;4936055;29;20289;-85
2022/05/29 05:46:01;;;;;;;1.33;1.23;;;13.80;99.90;;;;;;4935995;29;20231;-85
2022/05/29 05:48:30;;;;;;;3.10;1.60;;;13.80;99.90;;;;;;4936218;29;20221;-85
2022/05/29 05:50:59;;;;;;;1.50;1.40;;;13.80;99.90;;;;;;4935909;29;20241;-85
2022/05/29 05:53:28;;;;;;;1.50;1.38;;;13.70;99.90;;;;;;4935613;29;20261;-85
2022/05/29 05:55:59;;;;;;;2.30;1.45;;;13.80;99.90;;;;;;4935954;29;20221;-84
2022/05/29 05:58:27;;;;;;;1.33;1.23;;;13.80;99.90;;;;;;4936415;29;20301;-85
2022/05/29 06:00:56;;;;;;;1.17;1.17;;;13.80;99.90;;;;;;4935973;29;20230;-85
2022/05/29 06:03:25;;;;;;;5.03;1.30;;;13.90;99.90;;;;;;4935851;29;20241;-85
2022/05/29 06:05:53;;;;;;;1.25;1.15;;;13.90;99.90;;;;;;4935868;29;20215;-85
2022/05/29 06:08:22;;;;;;;2.03;1.10;;;14.00;99.90;;;;;;4936168;29;20210;-85
2022/05/29 06:10:50;;;;;;;1.80;1.50;;;14.10;99.90;;;;;;4935609;29;20234;-85
2022/05/29 06:13:19;;;;;;;1.17;1.05;;;14.10;99.90;;;;;;4936031;29;20312;-85
2022/05/29 06:15:47;;;;;;;2.45;1.45;;;14.30;99.90;;;;;;4936176;29;20314;-85
2022/05/29 06:18:17;;;;;;;1.25;0.98;;;14.30;99.90;;;;;;4936175;29;20209;-85
2022/05/29 06:20:47;;;;;;;1.98;1.45;;;14.40;99.90;;;;;;4934889;29;20321;-85
2022/05/29 06:23:16;;;;;;;2.05;1.45;;;14.50;99.90;;;;;;4936034;29;20237;-85
2022/05/29 06:25:44;;;;;;;1.58;1.42;;;14.60;99.90;;;;;;4935479;29;20244;-85
2022/05/29 06:28:12;;;;;;;1.80;1.48;;;14.70;99.90;;;;;;4935730;29;20217;-85
2022/05/29 06:30:41;;;;;;;2.17;1.20;;;14.90;99.90;;;;;;4935498;29;20244;-85
2022/05/29 06:33:10;;;;;;;2.95;1.88;;;15.10;99.90;;;;;;4935076;29;20237;-85
2022/05/29 06:35:38;;;;;;;5.30;1.48;;;15.30;99.90;;;;;;4935447;29;20241;-85
2022/05/29 06:38:08;;;;;;;3.08;1.52;;;15.40;99.90;;;;;;4935345;29;20206;-85
2022/05/29 06:40:37;;;;;;;1.42;1.27;;;15.80;99.90;;;;;;4935157;29;20226;-85
2022/05/29 06:43:06;;;;;;;1.30;1.17;;;16.00;99.90;;;;;;4935525;29;20240;-85
2022/05/29 06:45:34;;;;;;;1.90;1.30;;;16.30;99.90;;;;;;4935506;29;20206;-85
2022/05/29 06:48:02;;;;;;;1.80;1.70;;;16.50;99.90;;;;;;4935305;29;20213;-85
2022/05/29 06:50:30;;;;;;;3.88;1.52;;;16.80;99.90;;;;;;4935727;29;20221;-85
2022/05/29 06:52:59;;;;;;;8.15;1.58;;;17.10;99.90;;;;;;4935244;29;20244;-85
2022/05/29 06:55:28;;;;;;;1.85;1.58;;;17.20;99.90;;;;;;4935339;29;20217;-86
2022/05/29 06:57:57;;;;;;;1.80;1.70;;;17.30;99.90;;;;;;4935428;29;20297;-85
2022/05/29 07:08:43;;;;;;;1.55;1.45;;;17.50;99.00;;;;;;4939692;29;20296;-86
2022/05/29 07:11:18;;;;;;;2.03;1.80;;;17.60;99.60;;;;;;4938913;29;20201;-85
2022/05/29 07:13:48;;;;;;;2.47;2.28;;;17.60;99.80;;;;;;4938801;29;20308;-85
2022/05/29 07:16:16;;;;;;;4.13;1.95;;;17.60;99.10;;;;;;4939145;29;20209;-85
2022/05/29 07:18:45;;;;;;;2.50;1.98;;;17.70;98.90;;;;;;4938867;29;20217;-86
2022/05/29 07:21:20;;;;;;;1.95;1.45;;;17.70;98.50;;;;;;4938480;29;20229;-86
2022/05/29 07:23:48;;;;;;;3.03;2.22;;;17.80;99.40;;;;;;4938935;29;20309;-86
2022/05/29 07:26:18;;;;;;;2.72;2.33;;;17.80;98.50;;;;;;4938995;29;20274;-85
2022/05/29 07:28:47;;;;;;;2.55;2.17;;;17.70;98.80;;;;;;4938652;29;20249;-85
2022/05/29 07:31:15;;;;;;;1.70;1.60;;;17.80;98.20;;;;;;4938541;29;20301;-86
2022/05/29 07:33:44;;;;;;;1.83;1.73;;;17.80;98.30;;;;;;4938619;29;20233;-85
2022/05/29 07:36:13;;;;;;;2.15;1.95;;;17.90;97.80;;;;;;4938779;29;20225;-85
2022/05/29 07:38:41;;;;;;;1.70;1.60;;;17.90;97.10;;;;;;4938643;29;20213;-86
2022/05/29 07:44:05;;;;;;;2.60;1.83;;;18.00;97.50;;;;;;4915388;29;20317;-85
2022/05/29 07:46:34;;;;;;;2.40;1.75;;;17.80;97.00;;;;;;4938545;29;20237;-86
2022/05/29 07:49:02;;;;;;;13.90;2.22;;;17.80;96.40;;;;;;4938626;29;20254;-86
2022/05/29 07:51:30;;;;;;;1.60;1.50;;;17.90;96.40;;;;;;4938156;29;20269;-85
2022/05/29 07:53:59;;;;;;;2.78;2.00;;;18.00;94.90;;;;;;4938132;29;20308;-86
2022/05/29 07:56:28;;;;;;;4.22;1.55;;;17.90;94.50;;;;;;4938238;29;20289;-86
2022/05/29 07:58:56;;;;;;;2.25;1.42;;;17.90;93.80;;;;;;4938283;29;20297;-86
2022/05/29 08:01:26;;;;;;;1.73;1.23;;;18.00;93.70;;;;;;4938108;29;20321;-86
2022/05/29 08:03:55;;;;;;;3.42;1.92;;;18.10;92.70;;;;;;4938407;29;20225;-86
2022/05/29 08:06:24;;;;;;;1.25;1.15;;;18.40;92.80;;;;;;4938222;29;20264;-86
2022/05/29 08:08:52;;;;;;;1.10;1.08;;;18.70;90.10;;;;;;4938182;29;20206;-86
2022/05/29 08:11:20;;;;;;;1.20;1.10;;;18.50;87.20;;;;;;4937713;29;20228;-86
2022/05/29 08:13:49;;;;;;;1.95;1.30;;;18.20;87.50;;;;;;4937870;29;20226;-86
2022/05/29 08:16:18;;;;;;;2.08;1.08;;;18.10;87.00;;;;;;4937412;29;20214;-86
2022/05/29 08:18:48;;;;;;;1.27;1.17;;;17.90;86.70;;;;;;4937899;29;20221;-85
2022/05/29 08:21:16;;;;;;;1.42;1.17;;;17.60;85.20;;;;;;4937307;29;20240;-86
2022/05/29 08:30:37;;;;;;;1.75;1.38;;;17.20;87.30;;;;;;4937559;29;20246;-85
2022/05/29 08:32:26;;;;;;;1.52;1.35;;;17.20;89.10;;;;;;4937660;29;20291;-86
2022/05/29 08:34:56;;;;;;;1.83;1.38;;;17.30;88.90;;;;;;4937821;29;20308;-86
2022/05/29 08:37:24;;;;;;;9.90;1.40;;;17.40;87.60;;;;;;4937362;29;20209;-86
2022/05/29 08:39:52;;;;;;;1.40;1.30;;;17.50;86.80;;;;;;4937170;29;20313;-86
2022/05/29 08:42:21;;;;;;;1.27;1.17;;;17.60;88.50;;;;;;4937778;29;20309;-86
2022/05/29 08:44:51;;;;;;;2.15;1.63;;;17.80;89.20;;;;;;4937132;29;20230;-86
2022/05/29 08:47:26;;;;;;;2.60;1.60;;;18.10;89.50;;;;;;4937654;29;20241;-86
2022/05/29 08:50:03;;;;;;;3.80;1.38;;;18.30;89.40;;;;;;4937206;29;20221;-86
2022/05/29 08:52:46;;;;;;;2.30;1.23;;;18.50;88.20;;;;;;4937236;29;20234;-86
2022/05/29 08:55:18;;;;;;;1.52;1.42;;;18.60;88.80;;;;;;4937293;29;20233;-86
2022/05/29 08:58:01;;;;;;;4.07;1.80;;;18.70;86.30;;;;;;4937121;29;20210;-86
2022/05/29 09:00:44;;;;;;;1.08;1.08;;;18.70;85.40;;;;;;4937195;29;20230;-86
2022/05/29 09:03:48;;;;;;;1.48;1.30;;;18.90;83.40;;;;;;4936937;29;20294;-86
2022/05/29 09:06:20;;;;;;;1.85;1.35;;;18.80;83.40;;;;;;4897263;29;20238;-86
2022/05/29 09:08:54;;;;;;;2.30;1.48;;;18.70;82.70;;;;;;4930087;29;20210;-86
2022/05/29 09:11:29;;;;;;;2.38;1.27;;;18.60;83.20;;;;;;4936772;29;20218;-86
2022/05/29 09:14:12;;;;;;;1.17;1.08;;;18.40;81.00;;;;;;4936568;29;20260;-86
2022/05/29 09:16:45;;;;;;;1.65;1.48;;;18.00;80.30;;;;;;4936548;29;20214;-86
2022/05/29 09:19:24;;;;;;;1.52;1.42;;;17.70;80.60;;;;;;4937209;29;20296;-86
2022/05/29 09:21:59;;;;;;;1.25;1.25;;;17.60;81.10;;;;;;4936197;29;20230;-86
2022/05/29 09:24:44;;;;;;;1.98;1.40;;;17.70;81.80;;;;;;4937221;29;20233;-86
2022/05/29 09:27:14;;;;;;;1.27;1.17;;;17.70;81.60;;;;;;4936551;29;20281;-86
2022/05/29 09:29:42;;;;;;;2.00;1.35;;;17.60;82.10;;;;;;4936572;29;20269;-86
2022/05/29 09:32:16;;;;;;;1.10;1.00;;;17.60;83.00;;;;;;4935973;29;20270;-86
2022/05/29 09:34:51;;;;;;;3.58;1.13;;;17.50;83.50;;;;;;4936221;29;20231;-85
2022/05/29 09:37:29;;;;;;;2.20;1.10;;;17.30;84.00;;;;;;4936307;29;20205;-86
2022/05/29 09:40:00;;;;;;;1.25;1.15;;;17.10;84.00;;;;;;4936575;29;20293;-86
2022/05/29 09:42:35;;;;;;;1.00;1.00;;;17.10;85.00;;;;;;4935861;29;20265;-86
2022/05/29 09:45:11;;;;;;;1.13;1.05;;;17.00;84.40;;;;;;4936027;29;20236;-86
2022/05/29 09:50:39;;;;;;;1.88;1.27;;;17.20;85.00;;;;;;4935950;29;20205;-86
2022/05/29 09:53:12;;;;;;;3.92;1.35;;;17.30;84.50;;;;;;4936165;29;20284;-86
2022/05/29 09:55:50;;;;;;;2.70;1.45;;;17.30;84.10;;;;;;4936231;29;20273;-86
2022/05/29 09:58:25;;;;;;;2.70;1.45;;;17.30;84.00;;;;;;4936177;29;20265;-86
2022/05/29 10:00:57;;;;;;;1.80;1.50;;;17.50;85.80;;;;;;4936004;29;20205;-86
2022/05/29 10:03:42;;;;;;;1.77;1.48;;;17.60;84.80;;;;;;4935939;29;20229;-86
2022/05/29 10:06:18;;;;;;;2.40;1.73;;;17.70;85.80;;;;;;4936018;29;20233;-86
2022/05/29 10:08:48;;;;;;;2.90;1.30;;;17.90;84.80;;;;;;4936055;29;20217;-86
2022/05/29 10:11:20;;;;;;;2.15;1.50;;;18.00;84.50;;;;;;4935920;29;20218;-86
2022/05/29 10:13:50;;;;;;;2.30;1.52;;;18.10;84.80;;;;;;4935719;29;20269;-86
2022/05/29 10:16:34;;;;;;;3.22;1.30;;;18.20;83.70;;;;;;4936116;29;20278;-86
2022/05/29 10:19:04;;;;;;;2.95;1.35;;;18.10;82.80;;;;;;4936057;29;20209;-86
2022/05/29 10:21:38;;;;;;;1.40;1.30;;;18.00;83.30;;;;;;4935257;29;20237;-86
2022/05/29 10:24:24;;;;;;;3.38;1.52;;;17.90;83.00;;;;;;4935197;29;20276;-86
2022/05/29 10:26:55;;;;;;;1.60;1.15;;;17.80;83.50;;;;;;4935552;29;20222;-86
2022/05/29 10:29:29;;;;;;;1.45;1.35;;;17.70;82.70;;;;;;4936025;29;20298;-86
2022/05/29 10:32:00;;;;;;;2.13;1.70;;;17.60;83.00;;;;;;4935629;29;20260;-86
2022/05/29 10:34:32;;;;;;;1.13;1.08;;;17.60;84.60;;;;;;4935734;29;20313;-86
2022/05/29 10:37:01;;;;;;;1.42;1.33;;;17.60;86.20;;;;;;4935794;29;20289;-86
2022/05/29 10:39:32;;;;;;;3.22;1.65;;;17.60;86.90;;;;;;4935248;29;20238;-86
2022/05/29 10:42:04;;;;;;;1.17;1.13;;;17.60;90.00;;;;;;4935347;29;20212;-86
2022/05/29 10:44:42;;;;;;;1.70;1.60;;;17.50;89.80;;;;;;4935216;29;20260;-86
2022/05/29 10:47:23;;;;;;;1.13;1.13;;;17.40;88.60;;;;;;4935673;29;20220;-86
2022/05/29 10:50:05;;;;;;;1.30;1.20;;;17.40;90.60;;;;;;4935430;29;20210;-86
2022/05/29 10:53:06;;;;;;;2.45;1.17;;;17.50;89.80;;;;;;4934971;29;20307;-86
2022/05/29 10:55:54;;;;;;;2.33;1.20;;;17.80;86.80;;;;;;4935392;29;20248;-86
2022/05/29 10:58:43;;;;;;;1.50;1.40;;;18.00;86.50;;;;;;4935825;29;20230;-86
2022/05/29 11:04:37;;;;;;;0.80;0.80;;;17.80;83.10;;;;;;4935200;29;20237;-86
2022/05/29 11:07:25;;;;;;;1.15;1.10;;;17.60;83.20;;;;;;4927545;29;20296;-86
2022/05/29 11:10:03;;;;;;;1.80;1.42;;;17.60;82.60;;;;;;4935747;29;20206;-86
2022/05/29 11:13:05;;;;;;;1.30;1.17;;;17.70;83.70;;;;;;4935395;29;20226;-86
2022/05/29 11:15:45;;;;;;;1.27;1.20;;;17.90;82.00;;;;;;4935131;29;20239;-86
2022/05/29 11:18:47;;;;;;;2.60;1.50;;;18.10;81.80;;;;;;4935373;29;20221;-86
2022/05/29 11:21:25;;;;;;;1.52;1.42;;;18.20;80.70;;;;;;4935057;29;20268;-86
2022/05/29 11:24:20;;;;;;;1.92;1.20;;;18.20;81.10;;;;;;4935010;29;20229;-86
2022/05/29 11:26:57;;;;;;;1.55;1.30;;;18.10;80.80;;;;;;4935040;29;20261;-86
2022/05/29 11:30:09;;;;;;;13.73;2.33;;;18.10;79.80;;;;;;4935228;29;20288;-86
2022/05/29 11:32:57;;;;;;;1.20;1.13;;;18.10;79.60;;;;;;4930019;29;20301;-86
2022/05/29 11:35:44;;;;;;;1.23;1.13;;;17.90;80.70;;;;;;4935070;29;20213;-86
2022/05/29 11:38:40;;;;;;;1.75;1.15;;;18.10;79.80;;;;;;4935069;29;20214;-86
2022/05/29 11:41:13;;;;;;;2.05;1.50;;;18.10;78.60;;;;;;4928157;29;20269;-86
2022/05/29 11:43:52;;;;;;;1.73;1.35;;;18.10;80.40;;;;;;4935252;29;20285;-86
2022/05/29 11:52:24;;;;;;;0.93;0.93;;;17.90;80.90;;;;;;4938531;29;20294;-86
2022/05/29 11:55:00;;;;;;;1.38;1.27;;;18.10;83.60;;;;;;4938360;29;20230;-86
2022/05/29 11:57:33;;;;;;;2.33;1.65;;;18.20;82.00;;;;;;4938425;29;20209;-86
2022/05/29 12:00:08;;;;;;;1.30;1.20;;;18.30;81.40;;;;;;4938259;29;20213;-86
2022/05/29 12:02:46;;;;;;;2.70;1.90;;;18.40;81.50;;;;;;4938322;29;20293;-86
2022/05/29 12:05:29;;;;;;;1.80;1.70;;;18.50;81.10;;;;;;4938081;29;20205;-86
2022/05/29 12:08:09;;;;;;;11.73;1.77;;;18.50;81.80;;;;;;4938515;29;20276;-86
2022/05/29 12:10:55;;;;;;;1.98;1.20;;;18.40;81.20;;;;;;4938017;29;20209;-86
2022/05/29 12:13:30;;;;;;;2.72;1.67;;;18.30;81.10;;;;;;4937623;29;20222;-87
2022/05/29 12:16:03;;;;;;;2.03;1.48;;;18.10;80.50;;;;;;4937966;29;20236;-86
2022/05/29 12:18:41;;;;;;;2.78;1.60;;;18.20;80.90;;;;;;4938404;29;20225;-86
2022/05/29 12:21:14;;;;;;;2.35;1.55;;;18.20;81.30;;;;;;4937616;29;20226;-86
2022/05/29 12:23:47;;;;;;;1.10;1.00;;;18.20;81.80;;;;;;4937347;29;20395;-86
2022/05/29 12:26:20;;;;;;;1.63;1.50;;;18.20;82.50;;;;;;4937484;29;20202;-86
2022/05/29 12:28:53;;;;;;;4.57;1.80;;;18.10;81.80;;;;;;4937743;29;20252;-86
2022/05/29 12:31:26;;;;;;;1.70;1.40;;;18.00;82.40;;;;;;4937603;29;20230;-86
2022/05/29 12:33:57;;;;;;;2.58;1.80;;;18.00;81.60;;;;;;4937719;29;20237;-86
2022/05/29 12:36:48;;;;;;;1.40;1.30;;;17.90;83.80;;;;;;4937522;29;20210;-86
2022/05/29 12:39:28;;;;;;;1.52;1.33;;;17.70;84.00;;;;;;4937714;29;20292;-86
2022/05/29 12:42:27;;;;;;;1.60;1.50;;;17.60;85.90;;;;;;4937309;29;20248;-86
2022/05/29 12:45:25;;;;;;;1.35;1.27;;;17.60;85.10;;;;;;4937229;29;20249;-86
2022/05/29 12:48:24;;;;;;;2.53;1.35;;;17.60;84.90;;;;;;4937508;29;20220;-86
2022/05/29 12:51:19;;;;;;;2.10;1.80;;;17.60;84.70;;;;;;4936900;29;20292;-86
2022/05/29 12:54:31;;;;;;;4.53;1.45;;;17.50;88.40;;;;;;4937090;29;20229;-86
2022/05/29 12:57:40;;;;;;;6.38;2.40;;;17.20;90.40;;;;;;4937713;29;20292;-86
2022/05/29 13:00:30;;;;;;;2.45;1.58;;;16.90;91.60;;;;;;4937418;29;20293;-86
2022/05/29 13:03:36;;;;;;;1.73;1.63;;;16.60;92.00;;;;;;4936936;29;20210;-86
2022/05/29 13:06:38;;;;;;;2.83;1.80;;;16.40;91.10;;;;;;4922384;29;20209;-86
2022/05/29 13:09:25;;;;;;;2.08;1.67;;;16.30;91.90;;;;;;4937057;29;20213;-86
2022/05/29 13:11:57;;;;;;;2.25;1.92;;;16.30;92.60;;;;;;4936807;29;20235;-86
2022/05/29 13:14:27;;;;;;;1.80;1.58;;;16.30;95.00;;;;;;4936814;29;20225;-86
2022/05/29 13:17:06;;;;;;;1.17;1.15;;;16.20;96.40;;;;;;4936702;29;20293;-86
2022/05/29 13:19:59;;;;;;;1.63;1.52;;;16.10;97.80;;;;;;4936833;29;20244;-86
2022/05/29 13:22:50;;;;;;;2.28;1.60;;;15.80;97.80;;;;;;4936614;29;20309;-86
2022/05/29 13:25:21;;;;;;;1.95;1.80;;;15.60;98.40;;;;;;4936375;29;20230;-86
2022/05/29 13:27:51;;;;;;;3.38;2.00;;;15.60;98.90;;;;;;4936745;29;20273;-86
2022/05/29 13:31:07;;;;;;;2.70;2.30;;;15.60;99.90;;;;;;4936430;29;20206;-86
2022/05/29 13:33:46;;;;;;;1.98;1.88;;;15.60;99.90;;;;;;4936355;29;20230;-86
2022/05/29 13:36:49;;;;;;;2.00;1.80;;;15.60;99.90;;;;;;4936474;29;20220;-86
2022/05/29 13:39:35;;;;;;;1.88;1.67;;;15.50;99.90;;;;;;4936861;29;20292;-86
2022/05/29 13:42:07;;;;;;;2.75;2.53;;;15.40;99.90;;;;;;4936318;29;20262;-86
2022/05/29 13:44:38;;;;;;;6.78;1.92;;;15.10;99.90;;;;;;4936203;29;20317;-86
2022/05/29 13:47:32;;;;;;;1.50;1.40;;;15.00;99.90;;;;;;4936297;29;20274;-86
2022/05/29 13:50:02;;;;;;;1.75;1.55;;;15.00;99.90;;;;;;4935980;29;20270;-86
2022/05/29 13:52:36;;;;;;;1.10;1.10;;;14.90;99.90;;;;;;4936058;29;20298;-85
2022/05/29 13:55:09;;;;;;;1.25;1.23;;;15.00;99.90;;;;;;4936110;29;20315;-86
2022/05/29 14:04:01;;;;;;;1.77;1.65;;;14.90;99.90;;;;;;4935965;29;20225;-86
2022/05/29 14:07:25;;;;;;;1.60;1.50;;;14.80;99.90;;;;;;4935557;29;20218;-85